Time;durP1;ratioP1;P1;durP2;ratioP2;P2;SDS_P1;SDS_P2;PMS_P1;PMS_P2;Temp;Humidity;BMP_temperature;BMP_pressure;BME280_temperature;BME280_humidity;BME280_pressure;Samples;Min_cycle;Max_cycle;Signal;HPM_P1;HPM_P2
2023/04/11 00:00:02;;;;;;;298.05;103.32;;;;;;;10.24;84.33;99219.53;341807;28;3549;-78
2023/04/11 00:00:12;;;;;;;297.92;102.93;;;;;;;10.16;84.55;99240.75;342255;28;3501;-78
2023/04/11 00:00:23;;;;;;;297.73;100.75;;;;;;;10.09;85.02;99228.88;344837;28;1311;-79
2023/04/11 00:00:35;;;;;;;298.70;101.90;;;;;;;10.10;84.80;99221.88;338443;28;3638;-78
2023/04/11 00:00:45;;;;;;;296.77;101.95;;;;;;;10.11;84.90;99239.25;343289;28;1340;-80
2023/04/11 00:00:56;;;;;;;296.35;102.95;;;;;;;10.09;85.08;99228.88;342387;28;3897;-78
2023/04/11 00:01:06;;;;;;;297.90;103.73;;;;;;;10.13;85.43;99233.03;340843;29;966;-78
2023/04/11 00:01:16;;;;;;;302.40;103.75;;;;;;;10.14;85.18;99226.06;340963;28;3865;-79
2023/04/11 00:01:28;;;;;;;304.47;103.50;;;;;;;10.18;85.48;99241.53;342737;28;913;-79
2023/04/11 00:01:39;;;;;;;304.85;102.53;;;;;;;10.21;85.43;99236.19;341136;28;3488;-78
2023/04/11 00:01:50;;;;;;;301.13;101.83;;;;;;;10.21;85.26;99235.34;340639;28;3664;-78
2023/04/11 00:02:00;;;;;;;300.98;101.90;;;;;;;10.22;85.57;99231.81;339361;28;3936;-79
2023/04/11 00:02:11;;;;;;;297.95;101.35;;;;;;;10.25;86.03;99237.75;342143;28;1007;-79
2023/04/11 00:02:24;;;;;;;303.58;102.28;;;;;;;10.22;85.96;99234.44;340717;28;5092;-78
2023/04/11 00:02:37;;;;;;;302.95;102.45;;;;;;;10.15;85.45;99231.22;341296;28;3755;-78
2023/04/11 00:02:48;;;;;;;294.95;101.20;;;;;;;10.14;85.72;99226.91;343949;28;3497;-78
2023/04/11 00:03:00;;;;;;;294.50;99.40;;;;;;;10.10;85.14;99224.50;341590;28;3813;-78
2023/04/11 00:03:10;;;;;;;296.52;101.35;;;;;;;10.10;85.47;99222.72;344057;28;5698;-79
2023/04/11 00:03:21;;;;;;;300.70;104.30;;;;;;;10.04;85.71;99227.38;344658;28;1213;-80
2023/04/11 00:03:31;;;;;;;300.38;103.97;;;;;;;10.03;85.83;99223.91;339499;28;3647;-78
2023/04/11 00:03:42;;;;;;;300.00;103.70;;;;;;;10.09;85.97;99228.03;342755;28;3574;-79
2023/04/11 00:03:53;;;;;;;301.60;104.50;;;;;;;10.07;86.41;99228.09;341695;28;1187;-79
2023/04/11 00:04:04;;;;;;;300.15;103.75;;;;;;;10.08;86.50;99219.34;343025;28;3540;-80
2023/04/11 00:04:15;;;;;;;299.70;102.30;;;;;;;10.08;86.26;99229.78;342245;28;1412;-79
2023/04/11 00:04:26;;;;;;;292.65;97.35;;;;;;;9.99;86.12;99224.97;341280;28;2910;-79
2023/04/11 00:04:37;;;;;;;295.60;99.38;;;;;;;9.98;86.24;99238.94;338349;29;3057;-79
2023/04/11 00:04:48;;;;;;;295.25;98.35;;;;;;;10.03;86.24;99226.53;337923;29;5211;-79
2023/04/11 00:04:59;;;;;;;299.13;101.43;;;;;;;10.05;86.11;99229.94;338983;29;3428;-79
2023/04/11 00:05:10;;;;;;;298.13;101.07;;;;;;;9.98;86.23;99215.44;336217;29;5102;-80
2023/04/11 00:05:20;;;;;;;299.60;102.13;;;;;;;10.09;86.25;99225.41;338999;29;6010;-79
2023/04/11 00:05:30;;;;;;;297.33;100.13;;;;;;;10.14;85.63;99237.34;335870;29;3150;-79
2023/04/11 00:05:41;;;;;;;297.23;100.00;;;;;;;10.14;85.88;99234.75;335787;29;3455;-78
2023/04/11 00:05:51;;;;;;;296.15;98.65;;;;;;;10.15;85.91;99231.22;334865;29;3921;-78
2023/04/11 00:06:02;;;;;;;296.93;100.40;;;;;;;10.15;85.96;99230.38;331334;29;5862;-78
2023/04/11 00:06:12;;;;;;;296.42;100.63;;;;;;;10.15;85.94;99230.38;332335;29;3773;-78
2023/04/11 00:06:26;;;;;;;296.10;100.97;;;;;;;10.03;85.34;99229.16;331224;29;5591;-79
2023/04/11 00:06:36;;;;;;;298.27;100.82;;;;;;;10.00;85.44;99218.81;333972;29;6072;-79
2023/04/11 00:06:47;;;;;;;299.43;101.30;;;;;;;10.01;85.69;99229.22;335564;29;1431;-80
2023/04/11 00:06:57;;;;;;;299.50;102.93;;;;;;;9.97;85.81;99221.56;337384;29;6151;-79
2023/04/11 00:07:08;;;;;;;297.87;102.00;;;;;;;10.00;86.12;99231.91;334540;29;1189;-79
2023/04/11 00:07:18;;;;;;;296.45;101.78;;;;;;;9.98;86.17;99231.13;329429;29;3666;-79
2023/04/11 00:07:29;;;;;;;299.47;102.30;;;;;;;9.90;86.26;99226.25;330915;29;1279;-79
2023/04/11 00:07:39;;;;;;;296.73;100.40;;;;;;;9.92;86.07;99228.81;330771;29;6218;-79
2023/04/11 00:07:49;;;;;;;297.90;100.67;;;;;;;9.91;86.11;99234.94;332953;29;1735;-79
2023/04/11 00:08:00;;;;;;;297.70;101.10;;;;;;;9.91;86.12;99232.31;327829;29;5467;-79
2023/04/11 00:08:10;;;;;;;297.97;101.87;;;;;;;9.90;86.82;99231.47;327395;30;5937;-79
2023/04/11 00:08:21;;;;;;;297.27;100.72;;;;;;;9.91;86.31;99227.94;325578;29;3685;-78
2023/04/11 00:08:31;;;;;;;299.27;101.57;;;;;;;9.97;86.36;99232.03;328745;30;6018;-79
2023/04/11 00:08:43;;;;;;;301.52;102.10;;;;;;;9.94;85.93;99226.97;329148;29;2004;-79
2023/04/11 00:08:53;;;;;;;301.27;101.72;;;;;;;9.96;85.69;99230.38;328286;30;1762;-79
2023/04/11 00:09:04;;;;;;;299.38;101.30;;;;;;;9.98;86.06;99228.50;326759;30;3426;-79
2023/04/11 00:09:15;;;;;;;295.87;99.13;;;;;;;9.99;85.77;99225.81;327374;30;3911;-78
2023/04/11 00:09:26;;;;;;;297.38;100.50;;;;;;;9.99;86.02;99219.75;328649;29;4995;-78
2023/04/11 00:09:36;;;;;;;297.93;99.73;;;;;;;9.99;85.84;99219.75;327532;30;4028;-78
2023/04/11 00:09:46;;;;;;;298.17;101.05;;;;;;;10.03;85.96;99226.53;321244;30;5714;-78
2023/04/11 00:09:57;;;;;;;298.43;101.70;;;;;;;10.08;86.00;99229.78;319048;30;3225;-79
2023/04/11 00:10:08;;;;;;;297.23;103.18;;;;;;;10.09;85.98;99228.88;317165;30;3316;-79
2023/04/11 00:10:18;;;;;;;298.65;103.80;;;;;;;10.07;86.26;99222.88;318118;30;4103;-79
2023/04/11 00:10:29;;;;;;;302.40;106.77;;;;;;;10.01;86.51;99223.13;310533;31;5128;-79
2023/04/11 00:10:39;;;;;;;304.30;106.97;;;;;;;9.98;86.59;99220.66;309964;31;3280;-80
2023/04/11 00:10:49;;;;;;;301.13;106.13;;;;;;;10.02;86.07;99224.84;308178;31;5824;-79
2023/04/11 00:11:00;;;;;;;297.73;102.03;;;;;;;9.99;86.15;99219.75;312486;31;3944;-79
2023/04/11 00:11:10;;;;;;;295.92;100.25;;;;;;;9.99;86.13;99219.75;308644;31;3048;-79
2023/04/11 00:11:21;;;;;;;296.87;99.93;;;;;;;9.92;86.25;99207.88;309712;31;3624;-79
2023/04/11 00:11:31;;;;;;;298.55;101.80;;;;;;;10.01;86.36;99223.13;307869;31;5554;-79
2023/04/11 00:11:42;;;;;;;301.27;102.57;;;;;;;9.96;86.25;99207.66;307023;31;3533;-79
2023/04/11 00:11:52;;;;;;;304.83;104.10;;;;;;;10.02;86.01;99222.22;307224;31;2398;-80
2023/04/11 00:12:03;;;;;;;303.50;102.47;;;;;;;10.09;86.31;99226.25;310054;31;3820;-79
2023/04/11 00:12:14;;;;;;;301.83;101.90;;;;;;;10.05;86.81;99219.47;307795;32;2404;-79
2023/04/11 00:12:24;;;;;;;297.75;100.63;;;;;;;10.07;86.56;99222.88;302282;32;5727;-79
2023/04/11 00:12:35;;;;;;;296.17;100.65;;;;;;;10.10;86.58;99220.09;301650;32;6065;-79
2023/04/11 00:12:45;;;;;;;295.27;101.70;;;;;;;10.14;86.32;99226.91;297943;32;3259;-79
2023/04/11 00:12:56;;;;;;;294.87;100.80;;;;;;;10.15;86.76;99217.28;301996;32;3254;-79
2023/04/11 00:13:06;;;;;;;296.17;101.63;;;;;;;10.18;86.35;99225.00;300455;32;3396;-82
2023/04/11 00:13:18;;;;;;;300.00;103.88;;;;;;;10.18;86.28;99222.38;302060;32;1422;-79
2023/04/11 00:13:28;;;;;;;300.83;104.20;;;;;;;10.19;86.33;99224.97;301267;32;5244;-79
2023/04/11 00:13:40;;;;;;;300.63;103.47;;;;;;;10.10;86.72;99214.03;301806;32;3434;-79
2023/04/11 00:13:52;;;;;;;300.17;104.05;;;;;;;9.97;86.52;99205.88;297750;32;4226;-78
2023/04/11 00:14:04;;;;;;;301.67;104.82;;;;;;;9.85;85.77;99201.22;299873;32;3580;-78
2023/04/11 00:14:16;;;;;;;302.10;104.25;;;;;;;9.90;85.86;99223.63;290672;33;5722;-78
2023/04/11 00:14:27;;;;;;;301.95;103.97;;;;;;;9.93;85.53;99227.88;292455;33;4249;-77
2023/04/11 00:14:44;;;;;;;300.48;105.35;;;;;;;9.96;85.85;99225.13;288428;33;5854;-77
2023/04/11 00:14:54;;;;;;;299.05;104.47;;;;;;;10.03;85.39;99221.31;288337;33;4140;-77
2023/04/11 00:15:06;;;;;;;300.90;104.37;;;;;;;10.04;85.53;99220.38;286985;34;3398;-78
2023/04/11 00:15:18;;;;;;;301.23;103.20;;;;;;;10.07;85.01;99212.41;284753;34;4055;-78
2023/04/11 00:15:31;;;;;;;299.60;103.53;;;;;;;10.09;85.50;99223.66;283154;34;4233;-78
2023/04/11 00:15:42;;;;;;;300.25;103.80;;;;;;;10.02;85.18;99210.00;281447;34;3683;-78
2023/04/11 00:15:54;;;;;;;299.15;103.68;;;;;;;10.02;85.24;99222.22;278536;35;3675;-78
2023/04/11 00:16:07;;;;;;;300.33;104.72;;;;;;;9.94;85.78;99208.66;278377;35;4345;-78
2023/04/11 00:16:18;;;;;;;296.25;103.10;;;;;;;9.98;85.84;99216.28;273918;35;5717;-78
2023/04/11 00:16:28;;;;;;;298.20;103.33;;;;;;;9.98;85.88;99212.81;274669;35;5495;-78
2023/04/11 00:16:40;;;;;;;300.50;105.38;;;;;;;9.89;85.89;99201.03;271090;35;6556;-78
2023/04/11 00:16:52;;;;;;;302.52;106.25;;;;;;;9.96;85.84;99217.28;271313;36;6012;-78
2023/04/11 00:17:04;;;;;;;301.08;103.85;;;;;;;9.94;85.55;99227.81;267713;36;5932;-78
2023/04/11 00:17:16;;;;;;;300.77;102.43;;;;;;;9.95;85.63;99233.91;268958;36;6518;-80
2023/04/11 00:17:30;;;;;;;303.00;104.47;;;;;;;9.95;85.74;99218.22;264591;36;6186;-79
2023/04/11 00:17:44;;;;;;;304.58;105.32;;;;;;;10.00;85.60;99221.44;266006;36;6320;-79
2023/04/11 00:19:45;;;;;;;289.14;95.37;;;;;;;9.97;85.30;99213.72;2494004;27;20498;-78
2023/04/11 00:20:00;;;;;;;291.77;99.50;;;;;;;9.96;85.11;99219.91;350393;28;5714;-79
2023/04/11 00:20:11;;;;;;;295.95;99.93;;;;;;;9.91;85.79;99217.50;346421;28;5104;-79
2023/04/11 00:20:22;;;;;;;297.28;100.62;;;;;;;9.89;85.54;99215.88;349715;28;3443;-79
2023/04/11 00:20:32;;;;;;;296.70;101.33;;;;;;;9.92;85.52;99223.56;346931;28;4101;-78
2023/04/11 00:20:43;;;;;;;296.10;102.90;;;;;;;9.88;85.62;99219.41;348457;28;3554;-79
2023/04/11 00:20:53;;;;;;;296.13;102.03;;;;;;;9.90;85.51;99228.03;345343;28;4979;-78
2023/04/11 00:21:06;;;;;;;297.67;102.23;;;;;;;9.84;85.39;99218.69;348637;28;3513;-78
2023/04/11 00:21:17;;;;;;;298.02;102.80;;;;;;;9.79;85.39;99212.81;344718;28;3639;-78
2023/04/11 00:21:27;;;;;;;297.23;102.47;;;;;;;9.77;85.69;99213.78;348814;28;1291;-78
2023/04/11 00:21:40;;;;;;;300.50;103.00;;;;;;;9.85;85.82;99223.00;345498;28;4277;-78
2023/04/11 00:21:51;;;;;;;295.98;99.90;;;;;;;9.86;85.68;99218.63;349126;28;3799;-79
2023/04/11 00:22:01;;;;;;;294.50;100.33;;;;;;;9.89;85.92;99223.72;344483;28;3463;-78
2023/04/11 00:22:14;;;;;;;293.83;100.40;;;;;;;9.80;85.93;99211.88;346661;28;3731;-78
2023/04/11 00:22:26;;;;;;;294.67;99.88;;;;;;;9.92;85.65;99219.19;347831;28;3415;-78
2023/04/11 00:22:37;;;;;;;296.27;99.88;;;;;;;9.97;85.57;99216.34;345195;28;3990;-78
2023/04/11 00:22:48;;;;;;;295.00;99.80;;;;;;;9.98;85.44;99218.03;347190;28;3603;-78
2023/04/11 00:22:58;;;;;;;295.77;100.05;;;;;;;9.98;85.66;99218.88;346428;28;3870;-79
2023/04/11 00:23:09;;;;;;;298.73;101.50;;;;;;;10.00;85.80;99216.22;346569;28;1377;-79
2023/04/11 00:23:19;;;;;;;300.38;101.57;;;;;;;10.03;85.48;99216.06;346300;28;3792;-79
2023/04/11 00:23:30;;;;;;;302.47;102.77;;;;;;;10.06;85.52;99220.31;345851;28;5377;-78
2023/04/11 00:23:41;;;;;;;301.60;102.75;;;;;;;10.02;85.60;99214.38;348310;28;3558;-78
2023/04/11 00:23:52;;;;;;;304.95;105.18;;;;;;;10.06;85.96;99215.94;347900;28;1319;-78
2023/04/11 00:24:03;;;;;;;304.50;104.20;;;;;;;10.07;85.34;99215.03;349872;28;3609;-80
2023/04/11 00:24:13;;;;;;;301.23;102.05;;;;;;;10.05;85.51;99214.25;348721;28;1004;-78
2023/04/11 00:24:24;;;;;;;301.43;101.67;;;;;;;10.05;84.96;99219.47;346255;28;5180;-79
2023/04/11 00:24:35;;;;;;;298.48;102.47;;;;;;;10.01;84.92;99210.06;348109;28;3881;-79
2023/04/11 00:24:45;;;;;;;294.77;101.90;;;;;;;10.01;84.77;99220.53;344384;28;5582;-79
2023/04/11 00:24:56;;;;;;;294.45;100.43;;;;;;;9.98;84.88;99213.66;345506;28;3824;-79
2023/04/11 00:25:06;;;;;;;297.07;102.37;;;;;;;9.95;85.08;99218.22;347133;28;5491;-79
2023/04/11 00:25:17;;;;;;;297.38;101.82;;;;;;;9.93;85.46;99220.03;346741;28;3921;-79
2023/04/11 00:25:28;;;;;;;299.20;103.03;;;;;;;9.90;85.10;99209.72;342688;28;6033;-79
2023/04/11 00:25:39;;;;;;;295.95;100.53;;;;;;;9.92;85.08;99207.88;346268;28;3199;-79
2023/04/11 00:25:49;;;;;;;295.00;100.22;;;;;;;9.95;85.20;99212.97;342861;28;5603;-79
2023/04/11 00:26:00;;;;;;;296.37;100.93;;;;;;;9.94;84.94;99216.50;344427;28;3859;-79
2023/04/11 00:26:10;;;;;;;297.95;101.60;;;;;;;9.96;85.03;99214.69;345715;28;3562;-79
2023/04/11 00:26:21;;;;;;;300.07;102.70;;;;;;;9.89;84.89;99192.34;347480;28;1209;-79
2023/04/11 00:26:31;;;;;;;304.23;103.87;;;;;;;9.99;84.94;99210.13;342772;28;5770;-79
2023/04/11 00:26:41;;;;;;;306.45;103.38;;;;;;;9.95;84.95;99210.38;345295;28;3514;-79
2023/04/11 00:26:52;;;;;;;310.00;104.20;;;;;;;9.97;84.68;99216.34;344812;28;1278;-79
2023/04/11 00:27:03;;;;;;;308.63;103.72;;;;;;;9.96;84.58;99207.66;343419;28;3626;-79
2023/04/11 00:27:13;;;;;;;307.17;104.25;;;;;;;9.98;84.58;99208.44;346013;28;1323;-79
2023/04/11 00:27:23;;;;;;;304.23;103.47;;;;;;;10.03;85.00;99216.06;343154;28;4230;-78
2023/04/11 00:27:34;;;;;;;304.73;104.43;;;;;;;9.96;84.79;99212.06;340703;28;5571;-79
2023/04/11 00:27:44;;;;;;;304.75;103.43;;;;;;;10.00;84.50;99211.81;337931;29;3917;-79
2023/04/11 00:27:55;;;;;;;305.30;104.83;;;;;;;9.98;84.61;99202.34;335864;29;5322;-79
2023/04/11 00:28:05;;;;;;;301.90;102.97;;;;;;;10.07;84.37;99215.03;335069;29;1508;-79
2023/04/11 00:28:16;;;;;;;300.00;104.17;;;;;;;10.10;84.22;99217.50;331163;29;5220;-79
2023/04/11 00:28:26;;;;;;;295.85;101.75;;;;;;;10.08;84.09;99206.25;336789;29;1620;-79
2023/04/11 00:28:36;;;;;;;296.73;102.63;;;;;;;10.12;84.25;99226.13;335444;29;5733;-79
2023/04/11 00:28:47;;;;;;;297.00;101.75;;;;;;;10.05;84.64;99218.63;338264;29;1217;-80
2023/04/11 00:28:57;;;;;;;297.47;102.70;;;;;;;10.00;85.14;99208.38;336295;29;5701;-79
2023/04/11 00:29:08;;;;;;;298.30;103.47;;;;;;;9.98;84.69;99218.03;337647;29;3380;-78
2023/04/11 00:29:18;;;;;;;298.53;103.30;;;;;;;9.91;85.07;99211.41;334170;29;5118;-78
2023/04/11 00:29:28;;;;;;;300.30;104.33;;;;;;;9.90;85.42;99225.41;331521;29;6011;-79
2023/04/11 00:29:39;;;;;;;298.90;104.00;;;;;;;9.88;84.99;99222.00;333297;29;5511;-79
2023/04/11 00:29:51;;;;;;;296.27;102.57;;;;;;;9.88;85.29;99208.94;332605;29;3517;-79
2023/04/11 00:30:06;;;;;;;294.92;101.60;;;;;;;9.91;85.61;99212.28;332648;29;5550;-80
2023/04/11 00:30:17;;;;;;;295.27;101.47;;;;;;;9.92;85.54;99213.13;328831;29;4157;-79
2023/04/11 00:30:27;;;;;;;296.00;101.13;;;;;;;9.93;85.40;99213.06;327239;29;3350;-79
2023/04/11 00:30:38;;;;;;;296.53;101.43;;;;;;;9.97;85.58;99208.50;326600;30;3904;-79
2023/04/11 00:30:48;;;;;;;297.00;100.50;;;;;;;9.96;85.32;99210.28;321689;30;5731;-79
2023/04/11 00:30:59;;;;;;;297.63;101.60;;;;;;;9.97;85.40;99213.72;327075;30;3727;-79
2023/04/11 00:31:11;;;;;;;297.05;100.30;;;;;;;10.00;85.15;99211.81;326378;30;3223;-79
2023/04/11 00:31:21;;;;;;;294.98;99.57;;;;;;;9.98;84.74;99218.88;324320;30;3566;-79
2023/04/11 00:31:32;;;;;;;294.23;97.33;;;;;;;9.95;85.17;99203.38;324454;30;3397;-79
2023/04/11 00:31:42;;;;;;;296.27;99.35;;;;;;;9.98;85.05;99212.81;322536;30;3360;-79
2023/04/11 00:31:54;;;;;;;300.07;101.83;;;;;;;9.99;85.11;99214.50;322478;30;1914;-79
2023/04/11 00:32:04;;;;;;;299.95;103.13;;;;;;;9.95;85.43;99216.44;319258;30;3727;-79
2023/04/11 00:32:15;;;;;;;296.83;101.75;;;;;;;9.90;85.17;99204.50;322784;30;3921;-79
2023/04/11 00:32:25;;;;;;;297.97;101.03;;;;;;;9.92;85.19;99213.97;321125;30;5395;-80
2023/04/11 00:32:36;;;;;;;299.85;100.97;;;;;;;9.95;85.55;99208.59;322746;30;3822;-79
2023/04/11 00:32:46;;;;;;;301.53;101.07;;;;;;;10.01;85.35;99216.13;322061;30;1189;-79
2023/04/11 00:32:57;;;;;;;300.00;100.35;;;;;;;9.99;85.15;99212.75;320450;30;3617;-80
2023/04/11 00:33:07;;;;;;;298.17;99.53;;;;;;;10.05;85.50;99219.47;321832;30;2015;-80
2023/04/11 00:33:18;;;;;;;295.55;97.85;;;;;;;10.05;85.05;99214.25;320191;30;3696;-79
2023/04/11 00:33:28;;;;;;;295.97;99.17;;;;;;;10.03;85.19;99208.22;320149;30;3190;-79
2023/04/11 00:33:39;;;;;;;298.25;101.65;;;;;;;10.02;85.16;99211.75;317901;30;5664;-79
2023/04/11 00:33:49;;;;;;;300.15;103.30;;;;;;;10.05;85.08;99214.25;319959;30;1852;-79
2023/04/11 00:34:00;;;;;;;301.37;104.00;;;;;;;9.99;85.03;99204.06;314748;31;3966;-79
2023/04/11 00:34:10;;;;;;;300.95;104.32;;;;;;;10.00;85.11;99218.81;313779;31;3479;-79
2023/04/11 00:34:22;;;;;;;300.07;103.27;;;;;;;9.95;84.91;99207.75;309894;31;5797;-79
2023/04/11 00:34:33;;;;;;;297.52;101.18;;;;;;;9.99;85.14;99211.91;311611;31;899;-79
2023/04/11 00:34:43;;;;;;;295.83;99.30;;;;;;;10.00;85.28;99210.97;308409;31;4215;-79
2023/04/11 00:34:54;;;;;;;299.93;102.53;;;;;;;10.05;84.90;99219.47;308654;31;3210;-79
2023/04/11 00:35:05;;;;;;;301.45;102.70;;;;;;;10.04;84.96;99204.69;308236;31;2624;-78
2023/04/11 00:35:15;;;;;;;302.67;105.43;;;;;;;10.07;84.71;99215.03;306699;31;4361;-77
2023/04/11 00:35:26;;;;;;;303.50;105.03;;;;;;;10.08;84.26;99211.50;306656;32;3246;-79
2023/04/11 00:35:38;;;;;;;303.15;105.15;;;;;;;10.07;84.57;99217.63;304432;31;5641;-77
2023/04/11 00:35:48;;;;;;;301.52;103.80;;;;;;;10.04;84.50;99216.91;307346;32;3752;-77
2023/04/11 00:35:59;;;;;;;300.93;105.03;;;;;;;10.00;84.73;99224.06;301957;32;5734;-80
2023/04/11 00:36:09;;;;;;;300.25;105.47;;;;;;;9.97;84.74;99216.34;301497;32;4056;-79
2023/04/11 00:36:20;;;;;;;300.08;105.82;;;;;;;9.98;84.58;99212.81;302894;32;5635;-79
2023/04/11 00:36:31;;;;;;;298.45;105.13;;;;;;;10.01;84.68;99213.53;301364;32;3905;-79
2023/04/11 00:36:41;;;;;;;298.27;104.87;;;;;;;10.00;84.75;99209.22;298166;32;4727;-78
2023/04/11 00:36:52;;;;;;;300.20;105.93;;;;;;;10.01;85.06;99213.53;294885;33;3976;-78
2023/04/11 00:37:02;;;;;;;302.70;105.83;;;;;;;10.00;84.88;99210.97;296119;33;1603;-78
2023/04/11 00:37:13;;;;;;;302.13;104.32;;;;;;;9.98;84.91;99212.81;296407;32;3737;-78
2023/04/11 00:37:23;;;;;;;300.17;101.73;;;;;;;9.99;84.68;99211.91;294712;33;3198;-80
2023/04/11 00:37:35;;;;;;;296.98;101.00;;;;;;;9.98;84.71;99212.81;291779;33;5163;-79
2023/04/11 00:37:48;;;;;;;296.63;101.60;;;;;;;10.00;84.63;99210.97;292753;33;3395;-79
2023/04/11 00:38:00;;;;;;;301.02;109.30;;;;;;;10.02;84.63;99209.16;285936;33;5777;-79
2023/04/11 00:38:11;;;;;;;300.65;108.55;;;;;;;10.06;84.44;99215.09;286659;33;4780;-79
2023/04/11 00:38:21;;;;;;;298.90;105.85;;;;;;;10.04;84.31;99215.16;280264;34;5754;-79
2023/04/11 00:38:32;;;;;;;299.70;103.30;;;;;;;10.06;84.30;99220.31;278119;35;1256;-79
2023/04/11 00:38:43;;;;;;;300.20;103.18;;;;;;;10.04;84.53;99211.69;276025;34;6121;-79
2023/04/11 00:38:53;;;;;;;299.52;100.10;;;;;;;9.92;84.12;99203.50;276495;35;6602;-79
2023/04/11 00:39:04;;;;;;;299.83;100.33;;;;;;;10.01;84.41;99217.91;276281;35;5351;-79
2023/04/11 00:39:19;;;;;;;300.27;101.78;;;;;;;10.01;84.58;99220.53;273435;36;3942;-79
2023/04/11 00:39:32;;;;;;;299.33;103.57;;;;;;;10.02;84.68;99214.38;269423;36;6133;-79
2023/04/11 00:41:06;;;;;;;288.19;95.65;;;;;;;9.93;84.39;99220.03;2485770;27;20270;-78
2023/04/11 00:41:17;;;;;;;294.20;100.70;;;;;;;9.91;84.55;99227.09;350836;28;5606;-79
2023/04/11 00:41:28;;;;;;;297.55;101.65;;;;;;;9.93;84.72;99212.19;349409;28;4182;-78
2023/04/11 00:41:39;;;;;;;300.83;103.30;;;;;;;9.94;84.59;99211.28;345884;28;3422;-78
2023/04/11 00:41:49;;;;;;;298.00;103.82;;;;;;;9.90;84.69;99220.19;346187;28;3552;-77
2023/04/11 00:42:04;;;;;;;295.60;102.45;;;;;;;9.89;84.33;99215.88;346578;28;3702;-77
2023/04/11 00:42:15;;;;;;;293.02;99.13;;;;;;;9.93;84.68;99218.28;345815;28;3716;-77
2023/04/11 00:42:25;;;;;;;294.02;98.88;;;;;;;9.91;84.62;99212.28;350388;28;1038;-79
2023/04/11 00:42:36;;;;;;;296.77;101.80;;;;;;;9.93;84.91;99214.81;347850;28;3538;-78
2023/04/11 00:42:47;;;;;;;297.03;102.30;;;;;;;9.94;84.94;99211.28;346606;28;1402;-78
2023/04/11 00:42:57;;;;;;;297.60;102.43;;;;;;;9.90;84.75;99214.94;345818;28;4128;-78
2023/04/11 00:43:07;;;;;;;297.38;100.72;;;;;;;9.93;84.80;99217.44;343401;28;1231;-78
2023/04/11 00:43:18;;;;;;;297.90;101.27;;;;;;;9.89;84.81;99208.03;344758;28;4243;-78
2023/04/11 00:43:28;;;;;;;296.05;101.25;;;;;;;9.88;85.31;99217.63;349569;28;980;-79
2023/04/11 00:43:38;;;;;;;297.30;102.50;;;;;;;9.85;84.67;99212.53;348936;28;935;-78
2023/04/11 00:43:49;;;;;;;297.60;102.57;;;;;;;9.86;85.24;99211.63;344468;28;5870;-78
2023/04/11 00:43:59;;;;;;;298.83;103.67;;;;;;;9.89;85.10;99208.88;347147;28;3169;-79
2023/04/11 00:44:12;;;;;;;298.08;103.43;;;;;;;9.87;84.86;99218.53;343807;28;4040;-78
2023/04/11 00:44:24;;;;;;;297.88;101.00;;;;;;;9.83;85.16;99218.75;347333;28;975;-77
2023/04/11 00:44:35;;;;;;;296.52;99.25;;;;;;;9.83;85.39;99218.75;345749;28;4895;-77
2023/04/11 00:44:45;;;;;;;294.27;97.32;;;;;;;9.87;85.39;99217.69;346455;28;3452;-78
2023/04/11 00:44:55;;;;;;;298.37;100.73;;;;;;;9.87;85.11;99215.09;343255;28;5442;-78
2023/04/11 00:45:06;;;;;;;297.95;101.15;;;;;;;9.87;85.28;99215.94;348097;28;5704;-78
2023/04/11 00:45:17;;;;;;;297.40;101.28;;;;;;;9.83;84.86;99208.28;347071;28;4243;-78
2023/04/11 00:45:27;;;;;;;299.70;102.53;;;;;;;9.89;85.04;99214.09;347492;28;3486;-78
2023/04/11 00:45:38;;;;;;;300.10;103.07;;;;;;;9.91;85.21;99212.28;346291;28;4260;-78
2023/04/11 00:45:48;;;;;;;301.03;103.77;;;;;;;9.93;85.29;99209.59;347517;28;3420;-78
2023/04/11 00:45:59;;;;;;;297.38;101.35;;;;;;;9.87;85.27;99209.84;346188;28;1201;-78
2023/04/11 00:46:10;;;;;;;299.40;100.60;;;;;;;9.87;84.52;99220.31;346292;28;889;-78
2023/04/11 00:46:20;;;;;;;297.77;100.43;;;;;;;9.91;85.02;99211.41;348088;28;3534;-78
2023/04/11 00:46:31;;;;;;;296.77;100.10;;;;;;;9.95;84.93;99212.97;347214;28;4171;-78
2023/04/11 00:46:42;;;;;;;297.45;102.35;;;;;;;9.94;84.74;99206.06;347125;28;3388;-78
2023/04/11 00:46:53;;;;;;;299.60;102.28;;;;;;;9.89;84.67;99214.09;349164;28;3922;-78
2023/04/11 00:47:05;;;;;;;298.75;102.13;;;;;;;9.90;84.68;99212.34;344407;28;3282;-78
2023/04/11 00:47:15;;;;;;;295.15;99.38;;;;;;;9.89;84.46;99214.09;344624;28;3824;-80
2023/04/11 00:47:26;;;;;;;295.30;101.23;;;;;;;9.93;84.70;99212.19;343844;28;5573;-79
2023/04/11 00:47:36;;;;;;;293.30;100.50;;;;;;;9.93;85.00;99206.97;346058;28;4057;-78
2023/04/11 00:47:47;;;;;;;296.50;103.50;;;;;;;10.00;84.48;99216.22;343587;28;5868;-78
2023/04/11 00:47:57;;;;;;;297.35;102.18;;;;;;;9.98;84.53;99208.44;345954;28;3948;-78
2023/04/11 00:48:07;;;;;;;300.37;103.53;;;;;;;10.02;84.48;99217.84;346045;28;5771;-78
2023/04/11 00:48:18;;;;;;;300.58;102.63;;;;;;;10.02;84.29;99212.59;346217;28;1319;-78
2023/04/11 00:48:29;;;;;;;298.80;103.17;;;;;;;10.08;84.67;99213.25;341552;28;5272;-78
2023/04/11 00:48:40;;;;;;;295.42;101.53;;;;;;;10.08;84.35;99213.25;346816;28;3785;-78
2023/04/11 00:48:50;;;;;;;293.75;101.07;;;;;;;10.13;84.35;99217.34;343369;28;5360;-78
2023/04/11 00:49:01;;;;;;;295.33;100.55;;;;;;;10.10;84.23;99207.03;342932;28;3878;-79
2023/04/11 00:49:11;;;;;;;297.37;100.90;;;;;;;10.07;84.11;99208.94;343015;28;3261;-78
2023/04/11 00:49:22;;;;;;;298.25;101.22;;;;;;;10.02;84.22;99207.38;344773;28;1193;-78
2023/04/11 00:49:32;;;;;;;300.27;102.93;;;;;;;10.14;84.10;99215.59;342655;28;3671;-77
2023/04/11 00:49:42;;;;;;;299.20;102.93;;;;;;;10.10;84.13;99212.28;341240;28;3359;-79
2023/04/11 00:49:53;;;;;;;301.90;102.63;;;;;;;10.07;84.42;99206.31;339017;28;3819;-78
2023/04/11 00:50:04;;;;;;;298.90;101.55;;;;;;;10.06;84.10;99207.25;347865;28;3323;-78
2023/04/11 00:50:14;;;;;;;299.87;102.13;;;;;;;10.09;84.00;99210.56;346085;28;5022;-78
2023/04/11 00:50:25;;;;;;;298.17;102.50;;;;;;;10.05;84.03;99211.63;345825;28;3584;-77
2023/04/11 00:50:39;;;;;;;296.50;102.00;;;;;;;10.11;84.23;99215.72;342740;28;3697;-78
2023/04/11 00:50:49;;;;;;;295.33;100.75;;;;;;;10.09;84.10;99210.56;343878;28;3447;-78
2023/04/11 00:50:59;;;;;;;301.88;104.63;;;;;;;10.05;84.17;99198.56;342188;28;1951;-78
2023/04/11 00:51:10;;;;;;;305.40;105.07;;;;;;;10.08;84.47;99211.50;338674;29;3545;-78
2023/04/11 00:51:20;;;;;;;305.73;105.47;;;;;;;10.10;84.30;99212.28;337634;29;1320;-78
2023/04/11 00:51:31;;;;;;;300.10;103.17;;;;;;;10.11;84.41;99213.13;335753;29;4000;-78
2023/04/11 00:51:41;;;;;;;299.13;103.60;;;;;;;10.07;84.45;99206.31;335852;28;5657;-78
2023/04/11 00:51:52;;;;;;;300.03;103.97;;;;;;;10.07;84.33;99215.03;336571;29;5162;-78
2023/04/11 00:52:02;;;;;;;298.95;103.40;;;;;;;10.08;84.27;99221.94;336264;29;3446;-77
2023/04/11 00:52:13;;;;;;;295.80;99.88;;;;;;;10.06;84.48;99205.47;338862;29;1531;-77
2023/04/11 00:52:23;;;;;;;297.60;101.37;;;;;;;10.08;84.47;99203.66;335041;29;5632;-77
2023/04/11 00:52:35;;;;;;;301.00;101.23;;;;;;;10.04;84.32;99209.94;341991;28;1030;-77
2023/04/11 00:52:45;;;;;;;302.05;103.15;;;;;;;10.06;84.47;99204.63;336284;29;5088;-78
2023/04/11 00:52:56;;;;;;;300.52;102.28;;;;;;;10.05;84.05;99203.78;335364;28;4002;-78
2023/04/11 00:53:07;;;;;;;300.13;104.27;;;;;;;10.03;84.30;99205.63;337813;29;5290;-78
2023/04/11 00:53:17;;;;;;;300.30;104.50;;;;;;;10.02;83.99;99219.59;336924;29;3808;-78
2023/04/11 00:53:31;;;;;;;299.55;105.15;;;;;;;10.00;83.91;99204.00;332656;29;4438;-78
2023/04/11 00:53:41;;;;;;;297.27;103.57;;;;;;;9.99;84.07;99204.91;329832;29;3903;-78